Time;durP1;ratioP1;P1;durP2;ratioP2;P2;SDS_P1;SDS_P2;PMS_P1;PMS_P2;Temp;Humidity;BMP_temperature;BMP_pressure;BME280_temperature;BME280_humidity;BME280_pressure;Samples;Min_cycle;Max_cycle;Signal;HPM_P1;HPM_P2
2024/01/04 00:01:42;;;;;;;3.28;1.60;;;22.30;56.20;;;;;;4951663;28;87605;-81
2024/01/04 00:04:07;;;;;;;3.50;2.00;;;22.30;56.00;;;;;;4951646;28;88431;-80
2024/01/04 00:06:33;;;;;;;4.10;1.77;;;22.20;55.90;;;;;;4951287;28;87348;-82
2024/01/04 00:08:58;;;;;;;2.63;1.52;;;22.20;56.10;;;;;;4951057;28;88251;-81
2024/01/04 00:11:24;;;;;;;3.33;1.60;;;22.20;56.10;;;;;;4950686;28;94270;-81
2024/01/04 00:13:50;;;;;;;3.58;1.77;;;22.20;56.00;;;;;;4957072;28;87840;-80
2024/01/04 00:16:15;;;;;;;3.25;1.33;;;22.20;56.10;;;;;;4951930;28;87771;-81
2024/01/04 00:18:41;;;;;;;3.35;1.85;;;22.20;56.20;;;;;;4955113;28;87733;-79
2024/01/04 00:21:07;;;;;;;2.53;1.83;;;22.20;56.20;;;;;;4949311;28;87907;-80
2024/01/04 00:23:34;;;;;;;3.53;1.83;;;22.20;56.30;;;;;;4953954;28;87453;-80
2024/01/04 00:26:00;;;;;;;4.03;1.90;;;22.10;56.10;;;;;;4953964;28;87346;-80
2024/01/04 00:28:26;;;;;;;2.80;1.50;;;22.10;56.10;;;;;;4952157;28;89032;-80
2024/01/04 00:30:51;;;;;;;4.38;1.80;;;22.10;56.10;;;;;;4953230;28;88058;-82
2024/01/04 00:33:17;;;;;;;4.50;2.10;;;22.10;56.20;;;;;;4956947;28;87680;-79
2024/01/04 00:35:42;;;;;;;4.40;1.55;;;22.10;56.10;;;;;;4955007;28;87369;-80
2024/01/04 00:38:08;;;;;;;4.10;1.73;;;22.10;56.20;;;;;;4949763;28;88934;-80
2024/01/04 00:40:35;;;;;;;3.67;1.65;;;22.10;56.20;;;;;;4953706;28;87366;-81
2024/01/04 00:43:01;;;;;;;2.78;1.73;;;22.10;56.10;;;;;;4953921;28;88246;-79
2024/01/04 00:45:27;;;;;;;4.65;1.90;;;22.00;56.20;;;;;;4960237;28;87010;-79
2024/01/04 00:47:52;;;;;;;4.65;1.80;;;22.00;56.10;;;;;;4955658;28;87708;-79
2024/01/04 00:50:18;;;;;;;2.22;1.55;;;22.00;56.10;;;;;;4958144;28;87215;-80
2024/01/04 00:52:44;;;;;;;2.50;1.60;;;22.00;56.10;;;;;;4954320;28;88831;-80
2024/01/04 00:55:09;;;;;;;2.78;1.52;;;22.00;56.10;;;;;;4949761;28;88002;-80
2024/01/04 00:57:35;;;;;;;3.45;2.20;;;21.90;56.10;;;;;;4950137;28;88252;-80
2024/01/04 01:00:01;;;;;;;3.17;1.70;;;21.90;56.10;;;;;;4954070;28;87700;-80
2024/01/04 01:02:27;;;;;;;2.47;1.50;;;21.90;56.20;;;;;;4952654;28;87702;-80
2024/01/04 01:04:52;;;;;;;3.17;1.40;;;21.90;56.10;;;;;;4954921;28;87654;-80
2024/01/04 01:07:18;;;;;;;3.50;1.52;;;21.90;56.10;;;;;;4954377;28;88171;-80
2024/01/04 01:09:43;;;;;;;4.72;1.80;;;21.90;56.10;;;;;;4956004;28;89334;-80
2024/01/04 01:12:09;;;;;;;2.83;1.45;;;21.90;56.20;;;;;;4951173;28;87799;-80
2024/01/04 01:14:35;;;;;;;2.70;1.52;;;21.90;56.30;;;;;;4952936;28;87265;-80
2024/01/04 01:17:00;;;;;;;4.40;1.83;;;21.90;56.20;;;;;;4952249;28;89102;-81
2024/01/04 01:19:26;;;;;;;2.75;1.38;;;21.80;56.30;;;;;;4954743;28;88250;-80
2024/01/04 01:21:52;;;;;;;2.67;1.30;;;21.80;56.10;;;;;;4950939;28;87449;-83
2024/01/04 01:24:17;;;;;;;2.72;1.58;;;21.80;56.20;;;;;;4950608;28;87875;-81
2024/01/04 01:26:44;;;;;;;2.42;1.45;;;21.80;56.20;;;;;;4950053;28;89357;-80
2024/01/04 01:29:10;;;;;;;2.88;1.40;;;21.80;56.30;;;;;;4954979;28;88311;-83
2024/01/04 01:31:42;;;;;;;3.55;1.60;;;21.80;56.20;;;;;;4955483;28;87594;-85
2024/01/04 01:34:08;;;;;;;2.67;1.45;;;21.80;56.30;;;;;;4952584;28;87045;-79
2024/01/04 01:36:34;;;;;;;2.17;1.42;;;21.80;56.20;;;;;;4950927;28;90845;-80
2024/01/04 01:39:00;;;;;;;3.20;1.40;;;21.80;56.20;;;;;;4954930;28;87519;-80
2024/01/04 01:41:25;;;;;;;3.08;1.60;;;21.80;56.20;;;;;;4951909;28;88721;-82
2024/01/04 01:43:51;;;;;;;2.67;1.48;;;21.80;56.30;;;;;;4958266;28;88087;-80
2024/01/04 01:46:17;;;;;;;3.65;1.85;;;21.70;56.20;;;;;;4956000;28;87556;-80
2024/01/04 01:48:43;;;;;;;2.50;1.40;;;21.70;56.20;;;;;;4953464;28;87947;-79
2024/01/04 01:51:10;;;;;;;3.72;1.65;;;21.70;56.20;;;;;;4951059;28;88310;-80
2024/01/04 01:53:37;;;;;;;3.22;1.70;;;21.70;56.20;;;;;;4955623;28;87824;-81
2024/01/04 01:56:03;;;;;;;3.15;1.45;;;21.70;56.10;;;;;;4954969;28;88488;-80
2024/01/04 01:58:29;;;;;;;4.95;1.60;;;21.70;56.90;;;;;;4954867;28;87261;-81
2024/01/04 02:00:55;;;;;;;5.82;1.95;;;21.60;56.20;;;;;;4954384;28;86989;-80
2024/01/04 02:03:21;;;;;;;2.28;1.08;;;21.60;56.20;;;;;;4956069;28;87324;-80
2024/01/04 02:05:47;;;;;;;3.95;1.63;;;21.60;56.30;;;;;;4955952;28;88706;-80
2024/01/04 02:08:12;;;;;;;2.92;1.42;;;21.60;56.30;;;;;;4951863;28;88141;-81
2024/01/04 02:10:39;;;;;;;2.40;1.25;;;21.60;56.20;;;;;;4955455;28;87426;-80
2024/01/04 02:13:05;;;;;;;2.33;1.30;;;21.60;56.20;;;;;;4955317;28;87454;-80
2024/01/04 02:15:31;;;;;;;2.85;1.83;;;21.60;56.20;;;;;;4953283;28;87513;-80
2024/01/04 02:17:57;;;;;;;2.45;1.40;;;21.60;56.20;;;;;;4955642;28;87960;-79
2024/01/04 02:20:22;;;;;;;2.50;1.35;;;21.60;56.20;;;;;;4957784;28;87471;-79
2024/01/04 02:22:51;;;;;;;4.00;1.80;;;21.60;56.30;;;;;;4949864;28;87159;-79
2024/01/04 02:25:17;;;;;;;3.07;1.47;;;21.60;56.30;;;;;;4955208;28;88778;-80
2024/01/04 02:27:43;;;;;;;1.63;1.20;;;21.60;56.30;;;;;;4959852;28;87640;-80
2024/01/04 02:30:11;;;;;;;2.58;1.40;;;21.60;56.30;;;;;;4955151;28;89013;-81
2024/01/04 02:32:37;;;;;;;2.10;1.30;;;21.50;56.20;;;;;;4955638;28;87296;-79
2024/01/04 02:35:03;;;;;;;2.92;1.38;;;21.60;56.20;;;;;;4953500;28;88160;-79
2024/01/04 02:37:29;;;;;;;2.53;1.33;;;21.50;56.10;;;;;;4956068;28;87860;-80
2024/01/04 02:39:54;;;;;;;2.33;1.00;;;21.50;56.40;;;;;;4955882;28;87629;-81
2024/01/04 02:42:20;;;;;;;2.78;1.10;;;21.50;56.20;;;;;;4955726;28;87647;-80
2024/01/04 02:44:46;;;;;;;3.53;1.52;;;21.50;56.20;;;;;;4951808;28;88116;-79
2024/01/04 02:47:11;;;;;;;2.53;1.25;;;21.50;56.20;;;;;;4954269;28;87363;-80
2024/01/04 02:49:38;;;;;;;3.03;1.42;;;21.50;56.10;;;;;;4955180;28;87448;-80
2024/01/04 02:52:04;;;;;;;1.58;1.20;;;21.40;56.20;;;;;;4954151;28;87751;-83
2024/01/04 02:54:30;;;;;;;3.03;1.30;;;21.40;56.30;;;;;;4954914;28;89217;-79
2024/01/04 02:56:56;;;;;;;2.40;1.25;;;21.40;56.30;;;;;;4957377;28;90289;-80
2024/01/04 02:59:21;;;;;;;1.90;1.13;;;21.40;56.20;;;;;;4960814;28;87543;-80
2024/01/04 03:01:48;;;;;;;2.35;1.50;;;21.40;56.10;;;;;;4967240;28;87695;-84
2024/01/04 03:04:15;;;;;;;2.38;1.20;;;21.40;56.00;;;;;;4962388;28;88598;-80
2024/01/04 03:06:41;;;;;;;2.47;1.48;;;21.40;56.20;;;;;;4965944;28;88550;-79
2024/01/04 03:09:07;;;;;;;3.30;1.17;;;21.40;56.30;;;;;;4965085;28;87834;-80
2024/01/04 03:11:33;;;;;;;3.38;1.40;;;21.40;56.30;;;;;;4957313;28;88540;-79
2024/01/04 03:13:58;;;;;;;2.83;1.55;;;21.40;56.20;;;;;;4956744;28;87423;-80
2024/01/04 03:16:24;;;;;;;3.22;1.60;;;21.40;56.20;;;;;;4958515;28;89225;-81
2024/01/04 03:18:49;;;;;;;3.53;1.77;;;21.30;56.20;;;;;;4957374;28;88269;-81
2024/01/04 03:21:16;;;;;;;2.60;1.35;;;21.40;56.20;;;;;;4960159;28;87711;-80
2024/01/04 03:23:42;;;;;;;2.53;1.20;;;21.30;56.10;;;;;;4957412;28;87531;-83
2024/01/04 03:26:08;;;;;;;2.05;1.30;;;21.30;56.20;;;;;;4957376;28;88109;-82
2024/01/04 03:28:34;;;;;;;2.17;1.20;;;21.30;56.20;;;;;;4957641;28;87558;-82
2024/01/04 03:30:59;;;;;;;2.75;1.20;;;21.30;56.20;;;;;;4954604;28;89542;-81
2024/01/04 03:33:25;;;;;;;2.92;1.30;;;21.30;56.10;;;;;;4956706;28;88247;-80
2024/01/04 03:35:51;;;;;;;1.65;1.00;;;21.30;56.10;;;;;;4956171;28;87684;-79
2024/01/04 03:38:16;;;;;;;1.85;1.05;;;21.30;56.10;;;;;;4950879;28;86955;-80
2024/01/04 03:40:42;;;;;;;2.08;0.95;;;21.30;56.30;;;;;;4957312;28;87969;-80
2024/01/04 03:43:08;;;;;;;1.40;1.10;;;21.30;56.20;;;;;;4958938;28;88304;-82
2024/01/04 03:45:33;;;;;;;1.27;1.00;;;21.30;56.20;;;;;;4955758;28;88082;-82
2024/01/04 03:47:59;;;;;;;1.70;1.20;;;21.30;56.10;;;;;;4954970;28;87180;-80
2024/01/04 03:50:25;;;;;;;2.75;1.40;;;21.20;56.20;;;;;;4954426;28;87921;-80
2024/01/04 03:52:51;;;;;;;2.13;1.10;;;21.20;56.20;;;;;;4955476;28;87330;-81
2024/01/04 03:55:17;;;;;;;1.73;1.00;;;21.20;56.10;;;;;;4954793;28;87531;-80
2024/01/04 03:57:46;;;;;;;2.63;1.20;;;21.20;56.10;;;;;;4956622;28;88072;-82
2024/01/04 04:00:12;;;;;;;2.08;1.00;;;21.20;56.20;;;;;;4951704;28;89390;-79
2024/01/04 04:02:38;;;;;;;1.90;1.10;;;21.20;56.20;;;;;;4957796;28;87565;-80
2024/01/04 04:05:05;;;;;;;2.08;1.05;;;21.20;56.30;;;;;;4969845;28;87460;-85
2024/01/04 04:07:30;;;;;;;2.97;1.30;;;21.20;56.20;;;;;;4959542;28;88243;-84
2024/01/04 04:09:56;;;;;;;3.08;1.25;;;21.20;56.10;;;;;;4962853;28;87301;-83
2024/01/04 04:12:22;;;;;;;1.38;1.10;;;21.20;56.20;;;;;;4967445;28;87746;-80
2024/01/04 04:14:49;;;;;;;3.03;1.45;;;21.20;56.20;;;;;;4966714;28;89368;-82
2024/01/04 04:17:18;;;;;;;1.65;0.88;;;21.20;56.20;;;;;;4970914;28;86946;-80
2024/01/04 04:19:43;;;;;;;2.00;1.23;;;21.20;56.20;;;;;;4964025;28;87040;-80
2024/01/04 04:22:09;;;;;;;2.55;1.20;;;21.20;56.20;;;;;;4962496;28;87573;-82
2024/01/04 04:24:35;;;;;;;2.40;0.80;;;21.20;56.30;;;;;;4963366;28;91545;-84
2024/01/04 04:27:01;;;;;;;1.20;0.88;;;21.20;56.20;;;;;;4983093;28;86945;-83
2024/01/04 04:29:26;;;;;;;3.10;1.20;;;21.20;56.30;;;;;;4980441;28;88281;-83
2024/01/04 04:31:52;;;;;;;3.60;1.10;;;21.20;56.40;;;;;;4982094;28;88756;-81
2024/01/04 04:34:17;;;;;;;2.17;1.20;;;21.10;56.30;;;;;;4982664;28;86982;-80
2024/01/04 04:36:43;;;;;;;1.95;1.33;;;21.10;56.20;;;;;;4967951;28;87211;-80
2024/01/04 04:39:09;;;;;;;1.38;0.82;;;21.10;56.20;;;;;;4961580;28;87699;-80
2024/01/04 04:41:34;;;;;;;2.42;1.17;;;21.10;56.30;;;;;;4959352;28;89156;-82
2024/01/04 04:44:00;;;;;;;2.47;1.30;;;21.10;56.30;;;;;;4958645;28;87561;-80
2024/01/04 04:46:26;;;;;;;1.48;1.00;;;21.10;56.40;;;;;;4960206;28;87330;-80
2024/01/04 04:48:55;;;;;;;1.73;0.98;;;21.10;56.40;;;;;;4956846;28;86519;-80
2024/01/04 04:51:27;;;;;;;0.98;0.63;;;21.10;56.30;;;;;;4959211;28;87497;-81
2024/01/04 04:53:53;;;;;;;2.15;1.13;;;21.10;57.00;;;;;;4956673;28;88099;-80
2024/01/04 04:56:18;;;;;;;1.58;0.73;;;21.10;56.50;;;;;;4957221;28;89131;-80
2024/01/04 04:58:44;;;;;;;1.25;0.70;;;21.10;56.30;;;;;;4959681;28;87442;-80
2024/01/04 05:01:10;;;;;;;2.13;1.35;;;21.10;56.40;;;;;;4955999;28;88533;-80
2024/01/04 05:03:36;;;;;;;2.38;1.20;;;21.00;56.20;;;;;;4956333;28;87597;-80
2024/01/04 05:06:02;;;;;;;1.98;1.08;;;21.00;56.30;;;;;;4953253;28;87627;-81
2024/01/04 05:08:28;;;;;;;1.48;0.70;;;21.00;56.30;;;;;;4952854;28;88020;-79
2024/01/04 05:10:54;;;;;;;1.55;1.02;;;21.00;56.40;;;;;;4952254;28;87339;-80
2024/01/04 05:13:19;;;;;;;1.35;0.77;;;21.00;56.30;;;;;;4955496;28;88390;-80
2024/01/04 05:15:45;;;;;;;2.38;1.23;;;21.00;56.30;;;;;;4953238;28;87612;-79
2024/01/04 05:18:11;;;;;;;2.47;0.95;;;21.00;56.40;;;;;;4953334;28;87939;-79
2024/01/04 05:20:37;;;;;;;1.77;1.15;;;21.00;56.40;;;;;;4951773;28;88430;-80
2024/01/04 05:23:02;;;;;;;1.77;0.95;;;21.00;56.40;;;;;;4949514;28;88147;-80
2024/01/04 05:25:28;;;;;;;2.17;0.80;;;21.00;56.30;;;;;;4955239;28;87903;-81
2024/01/04 05:27:54;;;;;;;1.52;0.80;;;21.00;56.40;;;;;;4949482;28;87450;-80
2024/01/04 05:30:19;;;;;;;1.83;1.00;;;21.00;56.40;;;;;;4949030;28;88158;-80
2024/01/04 05:32:45;;;;;;;1.10;0.75;;;21.00;56.40;;;;;;4950020;28;89131;-81
2024/01/04 05:35:11;;;;;;;1.58;0.82;;;21.00;56.40;;;;;;4955850;28;87798;-81
2024/01/04 05:37:38;;;;;;;1.33;0.80;;;21.00;56.40;;;;;;4954349;28;87373;-80
2024/01/04 05:40:04;;;;;;;2.33;0.93;;;20.90;56.20;;;;;;4954002;28;87839;-81
2024/01/04 05:42:30;;;;;;;4.05;1.80;;;21.00;56.20;;;;;;4955197;28;87515;-82
2024/01/04 05:44:55;;;;;;;3.97;1.30;;;20.90;56.30;;;;;;4948552;28;88493;-82
2024/01/04 05:47:21;;;;;;;4.75;1.90;;;21.00;56.70;;;;;;4949559;28;88823;-82
2024/01/04 05:49:46;;;;;;;3.60;1.20;;;20.90;56.80;;;;;;4952726;28;89604;-81
2024/01/04 05:52:12;;;;;;;4.40;1.48;;;21.00;56.00;;;;;;4952167;28;88264;-83
2024/01/04 05:54:38;;;;;;;3.15;1.63;;;20.90;56.40;;;;;;4952036;28;88002;-80
2024/01/04 05:57:05;;;;;;;3.70;0.98;;;21.00;55.80;;;;;;4949857;28;87828;-81
2024/01/04 05:59:30;;;;;;;2.72;1.20;;;21.00;54.60;;;;;;4958667;28;88414;-81
2024/01/04 06:01:56;;;;;;;1.90;1.30;;;20.90;54.90;;;;;;4958393;28;87944;-81
2024/01/04 06:04:21;;;;;;;2.38;1.40;;;20.90;54.60;;;;;;4951698;28;87102;-81
2024/01/04 06:06:47;;;;;;;3.17;1.20;;;20.90;55.00;;;;;;4954165;28;87439;-81
2024/01/04 06:09:13;;;;;;;3.38;1.42;;;20.90;55.10;;;;;;4953065;28;88597;-80
2024/01/04 06:11:39;;;;;;;2.90;1.27;;;20.90;55.00;;;;;;4956010;28;89203;-83
2024/01/04 06:14:05;;;;;;;2.90;1.42;;;20.90;55.10;;;;;;4951927;28;87102;-81
2024/01/04 06:16:31;;;;;;;4.07;1.30;;;20.90;55.00;;;;;;4953842;28;87360;-79
2024/01/04 06:18:58;;;;;;;2.25;1.17;;;20.90;55.00;;;;;;4955209;28;87874;-80
2024/01/04 06:21:23;;;;;;;1.70;1.20;;;20.90;54.90;;;;;;4951986;28;87323;-82
2024/01/04 06:23:50;;;;;;;2.03;1.10;;;20.80;54.80;;;;;;4957017;28;87449;-80
2024/01/04 06:26:19;;;;;;;3.50;1.63;;;20.80;54.90;;;;;;4952930;28;87187;-82
2024/01/04 06:28:45;;;;;;;2.30;1.08;;;20.80;54.90;;;;;;4957775;28;87960;-81
2024/01/04 06:31:11;;;;;;;2.25;1.10;;;20.80;55.50;;;;;;4954569;28;88907;-80
2024/01/04 06:33:36;;;;;;;2.15;1.15;;;20.80;54.70;;;;;;4952779;28;88810;-81
2024/01/04 06:36:02;;;;;;;2.92;1.20;;;20.80;54.70;;;;;;4951906;28;88328;-80
2024/01/04 06:38:28;;;;;;;4.60;1.25;;;20.80;54.50;;;;;;4950659;28;88480;-81
2024/01/04 06:40:58;;;;;;;2.63;1.35;;;20.80;54.60;;;;;;4956220;28;87758;-80
2024/01/04 06:43:25;;;;;;;1.70;0.95;;;20.80;54.50;;;;;;4951365;28;87636;-83
2024/01/04 06:45:51;;;;;;;1.77;1.02;;;20.80;54.50;;;;;;4954558;28;87542;-81
2024/01/04 06:48:16;;;;;;;3.63;1.10;;;20.80;54.40;;;;;;4951154;28;87790;-82
2024/01/04 06:50:44;;;;;;;3.08;1.10;;;20.80;54.50;;;;;;4950733;28;87403;-80
2024/01/04 06:53:14;;;;;;;1.85;0.90;;;20.80;54.50;;;;;;4952447;28;87651;-80
2024/01/04 06:55:40;;;;;;;1.77;0.82;;;20.80;54.20;;;;;;4953170;28;90046;-82
2024/01/04 06:58:08;;;;;;;2.17;1.38;;;20.80;54.30;;;;;;4953912;28;89881;-84
2024/01/04 07:00:34;;;;;;;2.55;1.17;;;20.80;54.20;;;;;;4951877;28;87633;-82
2024/01/04 07:02:59;;;;;;;3.55;1.30;;;20.70;54.40;;;;;;4952534;28;88337;-82
2024/01/04 07:05:25;;;;;;;1.30;0.80;;;20.70;54.80;;;;;;4952826;28;87359;-82
2024/01/04 07:07:51;;;;;;;2.22;1.10;;;20.70;54.90;;;;;;4954974;28;88674;-81
2024/01/04 07:10:16;;;;;;;1.73;0.90;;;20.70;55.00;;;;;;4953996;28;87449;-82
2024/01/04 07:12:43;;;;;;;2.20;1.10;;;20.80;55.20;;;;;;4957485;28;87993;-84
2024/01/04 07:15:09;;;;;;;1.80;1.00;;;20.80;55.20;;;;;;4952308;28;86566;-82
2024/01/04 07:17:35;;;;;;;2.53;0.95;;;20.80;55.10;;;;;;4956257;28;88241;-81
2024/01/04 07:20:01;;;;;;;3.70;1.23;;;20.80;55.20;;;;;;4954653;28;89920;-84
2024/01/04 07:22:27;;;;;;;2.17;0.90;;;20.80;55.20;;;;;;4953283;28;88456;-81
2024/01/04 07:24:53;;;;;;;3.88;1.17;;;20.80;55.20;;;;;;4952997;28;87141;-81
2024/01/04 07:27:20;;;;;;;1.40;0.70;;;20.80;55.20;;;;;;4952370;28;89016;-82
2024/01/04 07:29:46;;;;;;;2.45;1.15;;;20.80;55.20;;;;;;4956945;28;87669;-81
2024/01/04 07:32:12;;;;;;;2.33;1.05;;;20.80;55.30;;;;;;4959572;28;87234;-84
2024/01/04 07:34:39;;;;;;;2.95;1.35;;;20.80;55.10;;;;;;4959588;28;87151;-85
2024/01/04 07:37:05;;;;;;;2.92;1.15;;;20.80;55.20;;;;;;4958066;28;88771;-83
2024/01/04 07:39:31;;;;;;;2.33;1.10;;;20.80;55.10;;;;;;4960859;28;88262;-84
2024/01/04 07:41:57;;;;;;;2.13;1.15;;;20.80;54.90;;;;;;4962541;28;87250;-85
2024/01/04 07:44:22;;;;;;;6.78;1.50;;;20.90;55.30;;;;;;4956857;28;88839;-84
2024/01/04 07:46:48;;;;;;;3.38;1.30;;;21.00;55.70;;;;;;4961358;28;90615;-84
2024/01/04 07:49:14;;;;;;;2.95;0.80;;;21.10;55.30;;;;;;4959605;28;88708;-83
2024/01/04 07:51:39;;;;;;;1.30;0.80;;;21.20;55.40;;;;;;4960221;28;87486;-88
2024/01/04 07:54:05;;;;;;;3.40;0.80;;;21.30;55.00;;;;;;4962713;28;90854;-85
2024/01/04 07:56:31;;;;;;;2.03;0.73;;;21.30;55.00;;;;;;4966922;28;87634;-90
2024/01/04 07:58:56;;;;;;;2.38;0.73;;;21.40;54.90;;;;;;4957395;28;90187;-86
2024/01/04 08:01:23;;;;;;;2.25;0.85;;;21.50;54.60;;;;;;4959799;28;87476;-83
2024/01/04 08:03:48;;;;;;;2.42;0.80;;;21.60;54.50;;;;;;4958839;28;87524;-88
2024/01/04 08:06:14;;;;;;;1.25;0.63;;;21.60;54.40;;;;;;4957697;28;87758;-85
2024/01/04 08:08:40;;;;;;;3.65;1.38;;;21.70;54.50;;;;;;4955866;28;87936;-83
2024/01/04 08:11:07;;;;;;;3.25;0.90;;;21.70;54.40;;;;;;4956240;28;88570;-83
2024/01/04 08:13:33;;;;;;;2.97;0.88;;;21.80;54.30;;;;;;4955958;28;87599;-83
2024/01/04 08:16:00;;;;;;;1.75;0.63;;;21.80;54.30;;;;;;4953293;28;88015;-84
2024/01/04 08:18:26;;;;;;;0.73;0.60;;;21.90;54.20;;;;;;4955073;28;87600;-83
2024/01/04 08:20:52;;;;;;;3.22;1.45;;;22.00;54.30;;;;;;4959612;28;88379;-82
2024/01/04 08:23:17;;;;;;;4.40;1.00;;;22.00;54.30;;;;;;4952990;28;88401;-82
2024/01/04 08:25:43;;;;;;;2.45;0.90;;;22.10;54.20;;;;;;4961144;28;89067;-85
2024/01/04 08:28:09;;;;;;;2.03;0.93;;;22.10;54.20;;;;;;4956957;28;87324;-81
2024/01/04 08:30:35;;;;;;;1.65;0.90;;;22.10;53.90;;;;;;4956130;28;87210;-82
2024/01/04 08:33:01;;;;;;;2.58;1.25;;;22.20;54.10;;;;;;4958340;28;87210;-82
2024/01/04 08:35:26;;;;;;;3.22;1.15;;;22.20;54.00;;;;;;4954217;28;88523;-82
2024/01/04 08:37:52;;;;;;;4.50;1.30;;;22.20;54.00;;;;;;4957134;28;89109;-82
2024/01/04 08:40:18;;;;;;;4.25;1.42;;;22.30;54.10;;;;;;4960009;28;87493;-84
2024/01/04 08:42:43;;;;;;;3.00;1.20;;;22.30;54.00;;;;;;4963302;28;87858;-80
2024/01/04 08:45:13;;;;;;;2.53;1.13;;;22.30;54.00;;;;;;4960353;28;88135;-88
2024/01/04 08:47:40;;;;;;;5.40;2.10;;;22.30;54.30;;;;;;4961093;28;87249;-82
2024/01/04 08:50:06;;;;;;;4.22;1.65;;;22.40;54.60;;;;;;4956015;28;87214;-83
2024/01/04 08:52:32;;;;;;;5.18;1.40;;;22.40;54.70;;;;;;4958142;28;86903;-83
2024/01/04 08:54:58;;;;;;;3.83;1.55;;;22.40;54.60;;;;;;4956463;28;87388;-84
2024/01/04 08:57:24;;;;;;;6.00;2.08;;;22.40;54.60;;;;;;4957569;28;88066;-82
2024/01/04 08:59:50;;;;;;;4.72;1.63;;;22.50;54.60;;;;;;4959229;28;88389;-85
2024/01/04 09:02:16;;;;;;;3.95;1.90;;;22.50;54.50;;;;;;4958764;28;87669;-88
2024/01/04 09:04:41;;;;;;;4.95;1.70;;;22.50;54.60;;;;;;4957233;28;88976;-88
2024/01/04 09:07:08;;;;;;;4.53;1.60;;;22.50;54.60;;;;;;4955969;28;87776;-82
2024/01/04 09:09:34;;;;;;;4.50;1.98;;;22.50;54.50;;;;;;4957322;28;87701;-84
2024/01/04 09:12:00;;;;;;;8.20;1.92;;;22.60;54.20;;;;;;4957057;28;87243;-82
2024/01/04 09:14:26;;;;;;;7.75;1.80;;;22.60;54.20;;;;;;4954831;28;90541;-84
2024/01/04 09:16:52;;;;;;;7.95;1.90;;;22.60;54.20;;;;;;4957030;28;87896;-83
2024/01/04 09:19:19;;;;;;;6.45;2.15;;;22.60;54.10;;;;;;4956757;28;86918;-84
2024/01/04 09:21:47;;;;;;;12.13;2.00;;;22.70;54.60;;;;;;4954640;28;87453;-83
2024/01/04 09:24:13;;;;;;;5.07;1.85;;;22.70;54.50;;;;;;4953966;28;89157;-84
2024/01/04 09:26:43;;;;;;;6.60;1.75;;;22.60;54.30;;;;;;4955123;28;89264;-87
2024/01/04 09:29:08;;;;;;;;;;;22.70;54.20;;;;;;4956034;28;87559;-86
2024/01/04 09:31:34;;;;;;;6.72;2.35;;;22.70;54.00;;;;;;4956776;28;86989;-87
2024/01/04 09:34:00;;;;;;;9.05;2.85;;;22.80;54.20;;;;;;4954094;28;88378;-83
2024/01/04 09:36:26;;;;;;;11.45;3.45;;;22.80;53.50;;;;;;4935001;28;88089;-87
2024/01/04 09:38:51;;;;;;;9.95;4.03;;;22.80;53.20;;;;;;4934772;28;87627;-85
2024/01/04 09:41:25;;;;;;;9.50;3.50;;;22.80;53.10;;;;;;4950482;28;86700;-83
2024/01/04 09:43:55;;;;;;;12.00;4.00;;;22.80;52.90;;;;;;4951812;28;90528;-84
2024/01/04 09:46:23;;;;;;;10.70;4.28;;;22.80;52.90;;;;;;4953913;28;87974;-87
2024/01/04 09:48:58;;;;;;;12.10;4.00;;;22.80;52.70;;;;;;4954429;28;88504;-82
2024/01/04 09:51:26;;;;;;;9.35;3.58;;;22.80;52.70;;;;;;4958336;28;87938;-88
2024/01/04 09:53:58;;;;;;;9.80;3.53;;;22.80;52.90;;;;;;4956575;28;88003;-85
2024/01/04 09:56:26;;;;;;;15.85;4.88;;;22.90;52.80;;;;;;4958119;28;87835;-85
2024/01/04 09:58:53;;;;;;;9.57;3.58;;;22.90;52.60;;;;;;4964789;28;87542;-85
2024/01/04 10:01:30;;;;;;;9.93;4.10;;;22.90;53.00;;;;;;4967554;28;86899;-88
2024/01/04 10:04:00;;;;;;;10.38;3.15;;;22.90;53.00;;;;;;4965252;28;86999;-88
2024/01/04 10:06:33;;;;;;;10.27;4.28;;;23.00;53.00;;;;;;4960077;28;87390;-85
2024/01/04 10:09:18;;;;;;;15.60;5.20;;;22.90;51.70;;;;;;4953887;28;87783;-86
2024/01/04 10:12:03;;;;;;;15.30;5.32;;;22.90;51.20;;;;;;4949230;28;87694;-86
2024/01/04 10:14:30;;;;;;;9.27;3.97;;;22.90;51.50;;;;;;4961326;28;90485;-88
2024/01/04 10:16:56;;;;;;;9.00;4.00;;;22.90;51.90;;;;;;4958662;28;88108;-85
2024/01/04 10:19:23;;;;;;;11.65;4.70;;;22.90;51.90;;;;;;4957002;28;87021;-83
2024/01/04 10:21:49;;;;;;;10.25;4.20;;;22.90;51.50;;;;;;4944989;28;88254;-86
2024/01/04 10:24:21;;;;;;;11.32;3.88;;;22.90;51.60;;;;;;4954787;28;88397;-83
2024/01/04 10:27:00;;;;;;;11.52;4.28;;;22.90;51.60;;;;;;4959595;28;88007;-91
2024/01/04 10:29:27;;;;;;;10.02;3.72;;;22.90;51.90;;;;;;4956731;28;88406;-86
2024/01/04 10:31:59;;;;;;;8.90;4.03;;;23.00;52.00;;;;;;4957483;28;87315;-83
2024/01/04 10:34:26;;;;;;;9.85;3.92;;;23.00;51.90;;;;;;4955379;28;87674;-88
2024/01/04 10:36:52;;;;;;;9.50;3.78;;;22.90;51.80;;;;;;4950019;28;87451;-81
2024/01/04 10:39:20;;;;;;;11.05;4.20;;;22.90;52.30;;;;;;4944750;28;88838;-90
2024/01/04 10:41:59;;;;;;;7.25;3.25;;;22.90;52.50;;;;;;4956696;28;87886;-85
2024/01/04 10:44:26;;;;;;;12.00;3.60;;;23.00;53.50;;;;;;4956079;28;88642;-83
2024/01/04 10:47:03;;;;;;;7.45;3.55;;;23.00;52.80;;;;;;4955322;28;88090;-84
2024/01/04 10:49:29;;;;;;;9.65;3.22;;;23.00;53.00;;;;;;4954858;28;87144;-85
2024/01/04 10:52:01;;;;;;;8.38;3.38;;;23.00;52.80;;;;;;4959273;28;92698;-89
2024/01/04 10:54:34;;;;;;;12.75;3.63;;;23.00;53.10;;;;;;4961460;28;88132;-85
2024/01/04 10:57:02;;;;;;;9.50;3.30;;;23.10;53.10;;;;;;4968234;28;87331;-87
2024/01/04 10:59:34;;;;;;;11.25;3.67;;;23.10;53.20;;;;;;4966101;28;87641;-87
2024/01/04 11:02:01;;;;;;;9.75;3.75;;;23.10;53.30;;;;;;4970083;28;87084;-84
2024/01/04 11:04:28;;;;;;;10.70;3.90;;;23.20;53.60;;;;;;4968142;28;88377;-86
2024/01/04 11:06:54;;;;;;;7.25;2.90;;;23.20;53.50;;;;;;4967123;28;87543;-86
2024/01/04 11:09:21;;;;;;;7.72;2.88;;;23.20;53.60;;;;;;4970296;28;87415;-87
2024/01/04 11:11:54;;;;;;;8.63;3.13;;;23.20;53.80;;;;;;4959390;28;87479;-85
2024/01/04 11:14:20;;;;;;;6.15;2.85;;;23.20;53.90;;;;;;4964813;28;87265;-82
2024/01/04 11:16:58;;;;;;;7.75;3.05;;;23.20;53.90;;;;;;4975023;28;87875;-83
2024/01/04 11:19:33;;;;;;;9.00;2.88;;;23.20;53.90;;;;;;4984116;28;87087;-83
2024/01/04 11:22:21;;;;;;;9.15;3.22;;;23.20;54.30;;;;;;4985175;28;86548;-83
2024/01/04 11:24:58;;;;;;;8.57;3.17;;;23.30;54.30;;;;;;4980403;28;87391;-84
2024/01/04 11:27:24;;;;;;;7.53;2.90;;;23.30;54.50;;;;;;4968753;28;88210;-83
2024/01/04 11:29:50;;;;;;;20.77;3.80;;;23.30;54.60;;;;;;4959462;28;88655;-83
2024/01/04 11:32:17;;;;;;;17.38;4.28;;;23.30;54.30;;;;;;4961192;28;87260;-84
2024/01/04 11:34:47;;;;;;;15.77;3.25;;;23.30;54.30;;;;;;4962750;28;87528;-82
2024/01/04 11:37:22;;;;;;;20.25;2.50;;;23.30;54.20;;;;;;4958817;28;87425;-81
2024/01/04 11:40:03;;;;;;;15.90;3.55;;;23.30;54.30;;;;;;4958915;28;87234;-81
2024/01/04 11:42:39;;;;;;;18.30;4.05;;;23.40;54.30;;;;;;4962196;28;87565;-85
2024/01/04 11:45:26;;;;;;;21.63;3.10;;;23.40;54.40;;;;;;4961214;28;88605;-94
2024/01/04 11:47:52;;;;;;;20.77;4.10;;;23.40;54.70;;;;;;4964410;28;87537;-88
2024/01/04 11:50:28;;;;;;;11.55;3.95;;;23.40;55.30;;;;;;4959149;28;87330;-89
2024/01/04 11:53:07;;;;;;;14.90;3.17;;;23.40;55.40;;;;;;4960047;28;87432;-89
2024/01/04 11:55:36;;;;;;;14.82;3.63;;;23.40;55.40;;;;;;4958365;28;88745;-89
2024/01/04 11:58:10;;;;;;;27.08;4.40;;;23.40;55.30;;;;;;4957909;28;88757;-81
2024/01/04 12:00:38;;;;;;;12.95;3.67;;;23.30;55.10;;;;;;4958993;28;87507;-84
2024/01/04 12:03:14;;;;;;;15.07;3.83;;;23.20;55.30;;;;;;4953411;28;87868;-79
2024/01/04 12:05:45;;;;;;;16.75;4.90;;;23.20;55.60;;;;;;4962773;28;89786;-83
2024/01/04 12:08:28;;;;;;;17.52;4.80;;;23.10;55.70;;;;;;4950725;28;91287;-82
2024/01/04 12:10:55;;;;;;;17.73;4.85;;;23.00;54.80;;;;;;4956807;28;87099;-84
2024/01/04 12:13:22;;;;;;;21.40;5.82;;;23.00;55.30;;;;;;4957658;28;87035;-82
2024/01/04 12:15:49;;;;;;;22.75;5.28;;;23.00;55.30;;;;;;4953724;28;88092;-81
2024/01/04 12:18:16;;;;;;;21.05;5.47;;;22.90;55.10;;;;;;4952785;28;87900;-82
2024/01/04 12:20:45;;;;;;;20.98;4.55;;;22.90;55.10;;;;;;4953362;28;87925;-82
2024/01/04 12:23:12;;;;;;;19.97;4.30;;;22.90;54.30;;;;;;4954467;28;87394;-84
2024/01/04 12:25:39;;;;;;;16.92;4.05;;;22.80;53.90;;;;;;4952857;28;88171;-87
2024/01/04 12:28:08;;;;;;;16.88;4.60;;;22.80;53.30;;;;;;4955213;28;87624;-85
2024/01/04 12:30:36;;;;;;;12.75;4.13;;;22.90;54.30;;;;;;4959562;28;87814;-86
2024/01/04 12:33:03;;;;;;;12.88;3.95;;;22.90;55.00;;;;;;4956546;28;87344;-82
2024/01/04 12:35:29;;;;;;;14.60;3.55;;;23.00;53.90;;;;;;4953321;28;87875;-84
2024/01/04 12:38:05;;;;;;;18.33;4.28;;;23.00;55.00;;;;;;4959582;28;87020;-81
2024/01/04 12:40:42;;;;;;;11.88;3.92;;;23.00;55.00;;;;;;4957285;28;87419;-82
2024/01/04 12:43:10;;;;;;;10.85;3.10;;;23.00;55.20;;;;;;4957834;28;87584;-84
2024/01/04 12:45:36;;;;;;;12.88;4.07;;;23.10;55.10;;;;;;4956311;28;90248;-84